Terminal Aerodrome Forecast
Issued by NWS

Home | Current Version | Previous Version | Text Only | Print | Product List | Glossary On
Versions: 1 2 3 4 5 6 7 8 9 10 11 12 13 14 15 16 17 18 19 20 21 22 23 24 25 26 27 28 29 30 31 32 33 34 35 36 37 38 39 40 41 42 43 44 45 46 47 48 49 50
510
FTUS43 KMKX 281900 AAA
TAFENW
TAF AMD
KENW 281900Z 2819/2918 03014KT P6SM SCT022
     FM282100 03010KT P6SM SCT020
     FM290600 03007KT 4SM BR FEW035
     FM290800 04007KT 2SM BR SCT025
     FM291000 04007KT P6SM BKN040
     FM291200 06006KT P6SM BKN020
     FM291400 07008KT P6SM BKN035
     FM291700 06009KT P6SM BKN025=

USA.gov is the U.S. government's official web portal to all federal, state and local government web resources and services.